AUW weather

Wausau Downtown Airport
Wausau, Wisconsin, United States

Public forecast

Using degrees Fahrenheit for public forecast. Weather courtesy of forecast.io.

Current aviation weather report (METAR) for Wausau Downtown Airport

Retrieved 2020/08/07 00:54 UTC (24 minutes ago):

KAUW 070054Z AUTO 25003KT 10SM OVC080 22/14 A3008 RMK AO2 SLP186 T02220144

Aviation forecast (TAF) for Wausau Downtown Airport

Retrieved 2020-08-07 00:27 UTC (51 minutes ago):

TAF KAUW 062325Z 0700/0724 21006KT P6SM OVC080 FM070300 19003KT P6SM SCT080 FM071500 17006KT P6SM SCT035 FM071800 19010G16KT P6SM SCT045 BKN080